This is the latest recevied weather packets stored in our database for station/object SQ9MHX-13. If no packets are shown the sender has not sent any weather packets the latest 10 day(s).
| Time | Temp. | Humidity | Pressure | Rain* | Wind** | Luminosity | Snow |
|---|---|---|---|---|---|---|---|
| 1777326388 | 5° C | 61% | 985.2 hPa | - | 0 m/s | - | - |
| 1777326177 | 5° C | 61% | 985.3 hPa | - | 0 m/s | - | - |
| 1777326090 | 5° C | 61% | 985.3 hPa | - | 0 m/s | - | - |
| 1777325792 | 5° C | 60% | 985.3 hPa | - | 0 m/s | - | - |
| 1777325494 | 5° C | 60% | 985.2 hPa | - | 0 m/s | - | - |
| 1777325195 | 5° C | 60% | 985.3 hPa | - | 0 m/s | - | - |
| 1777325056 | 5° C | 61% | 985.3 hPa | - | 0 m/s | - | - |
| 1777324897 | 5° C | 61% | 985.3 hPa | - | 0 m/s | - | - |
| 1777324663 | 5° C | 60% | 985.2 hPa | - | 0 m/s | - | - |
| 1777324599 | 5° C | 60% | 985.2 hPa | - | 0 m/s | - | - |
| 1777324301 | 5° C | 59% | 984.9 hPa | - | 0 m/s | - | - |
| 1777324003 | 5° C | 58% | 985 hPa | - | 0 m/s | - | - |
| 1777323705 | 5° C | 59% | 985.3 hPa | - | 0 m/s | - | - |
| 1777323407 | 5° C | 59% | 985.7 hPa | - | 0 m/s | - | - |
| 1777323109 | 3.89° C | 61% | 986.3 hPa | - | 0 m/s | - | - |
| 1777322811 | 3.89° C | 63% | 986.8 hPa | - | 0 m/s | - | - |
| 1777321916 | 5° C | 56% | 985.1 hPa | - | 0 m/s | - | - |
| 1777321619 | 5° C | 55% | 984.8 hPa | - | 0 m/s | - | - |
| 1777321320 | 5° C | 55% | 985 hPa | - | 0 m/s | - | - |
| 1777321022 | 5° C | 55% | 985 hPa | - | 0 m/s | - | - |
| 1777320724 | 5° C | 54% | 984.9 hPa | - | 0 m/s | - | - |
| 1777320426 | 5° C | 55% | 985 hPa | - | 0 m/s | - | - |
| 1777320128 | 5° C | 55% | 984.8 hPa | - | 0 m/s | - | - |
| 1777319830 | 6.11° C | 55% | 984.5 hPa | - | 0 m/s | - | - |
| 1777319532 | 6.11° C | 52% | 984.5 hPa | - | 0 m/s | - | - |
* Rain since midnight (hover to see other rain measurements)
** Current wind speed in m/s (hover to see current wind gust speed)